»·PEaware :: N149CD KSNA-KOXR

N149CD :: KSNA-KOXR

FLIGHT INFORMATION

Flight Status: Arrived
Operator: Privately registered:
United States
More flights under this callsign
Pilot: Nathan E. (30132)
Aircraft: CESSNA 172 SKYHAWK
(C172)
More flights by this aircraft type
Origin: KSNA John Wayne-Orange Co
United States
Destination: KOXR Oxnard
United States
More flights between these airports :: More routes between these airports
Route: SLI V23 POPPR SMO125 SMO VNY
File this flight plan on PilotEdge
Remarks: TEC route CSTP24
Altitude:
(Current/Filed)
4,000ft
Speed:
(Current/Filed)
110kts
Departed: 13-Sep-20 02:02 PM
Arrived: 13-Sep-20 02:47 PM
Distance/Time
Traveled:
73nm/0:44
Distance/Time
To Go:
Arrived

Flight Plot

Page will automatically refresh every two minutes.


Map Options




Map Legend


Flown Route
Filed Route
Departure Airport
Arrival Airport
Navaid (VOR, NDB)
Fix

Horizontal Profiles

Position Reports

Time Latitude Longitude Heading Altitude Ground
Speed
13-Sep-20 13:46 33.668086 -117.871025 221 60ft 0kts
13-Sep-20 13:47 33.668086 -117.871025 221 60ft 0kts
13-Sep-20 13:48 33.668086 -117.871025 221 60ft 0kts
13-Sep-20 13:49 33.668086 -117.871025 221 60ft 0kts
13-Sep-20 13:50 33.668086 -117.871025 221 60ft 0kts
13-Sep-20 13:51 33.668086 -117.871025 221 60ft 0kts
13-Sep-20 13:52 33.668086 -117.871025 221 60ft 0kts
13-Sep-20 13:53 33.668086 -117.871025 221 60ft 0kts
13-Sep-20 13:54 33.668083 -117.871030 236 60ft 0kts
13-Sep-20 13:55 33.670757 -117.870121 125 60ft 8kts
13-Sep-20 13:56 33.670577 -117.870067 121 60ft 9kts
13-Sep-20 13:57 33.674131 -117.867067 27 60ft 15kts
13-Sep-20 13:58 33.679595 -117.863610 28 60ft 16kts
13-Sep-20 13:59 33.679960 -117.863614 295 60ft 0kts
13-Sep-20 14:00 33.679936 -117.864285 205 60ft 13kts
13-Sep-20 14:02 33.661342 -117.877886 234 737ft 73kts
13-Sep-20 14:02 33.652264 -117.896275 241 1384ft 78kts
13-Sep-20 14:03 33.641151 -117.918711 241 2195ft 79kts
13-Sep-20 14:04 33.629621 -117.941276 246 2966ft 79kts
13-Sep-20 14:05 33.638092 -117.962950 308 3703ft 75kts
13-Sep-20 14:06 33.652642 -117.986144 308 4027ft 107kts
13-Sep-20 14:07 33.671117 -118.015294 303 4025ft 115kts
13-Sep-20 14:08 33.690485 -118.046028 304 4026ft 116kts
13-Sep-20 14:09 33.710201 -118.077335 304 4027ft 118kts
13-Sep-20 14:10 33.730131 -118.108985 304 4026ft 118kts
13-Sep-20 14:11 33.749970 -118.140530 303 4025ft 118kts
13-Sep-20 14:12 33.769666 -118.171881 303 4023ft 117kts
13-Sep-20 14:13 33.789206 -118.203015 303 4021ft 116kts
13-Sep-20 14:14 33.808041 -118.233187 308 4016ft 106kts
13-Sep-20 14:15 33.825669 -118.261250 308 4017ft 105kts
13-Sep-20 14:16 33.844091 -118.288531 321 4016ft 104kts
13-Sep-20 14:17 33.866726 -118.310537 321 4016ft 104kts
13-Sep-20 14:18 33.889174 -118.332876 320 4017ft 104kts
13-Sep-20 14:19 33.911787 -118.355638 315 4021ft 112kts
13-Sep-20 14:20 33.936490 -118.380885 316 4021ft 118kts
13-Sep-20 14:21 33.961633 -118.406701 316 4022ft 119kts
13-Sep-20 14:22 33.987142 -118.432924 317 4023ft 120kts
13-Sep-20 14:23 34.011913 -118.460069 312 4024ft 121kts
13-Sep-20 14:24 34.035513 -118.489253 312 4026ft 121kts
13-Sep-20 14:25 34.059040 -118.518401 312 4027ft 121kts
13-Sep-20 14:26 34.082673 -118.547528 312 4028ft 121kts
13-Sep-20 14:27 34.106389 -118.576641 312 4026ft 121kts
13-Sep-20 14:28 34.130036 -118.605669 312 4007ft 121kts
13-Sep-20 14:29 34.153083 -118.635234 290 4004ft 118kts
13-Sep-20 14:30 34.160664 -118.674192 278 4206ft 121kts
13-Sep-20 14:31 34.167735 -118.712266 277 4209ft 114kts
13-Sep-20 14:32 34.174664 -118.749798 277 4210ft 113kts
13-Sep-20 14:33 34.181511 -118.786931 276 4211ft 112kts
13-Sep-20 14:34 34.188267 -118.823649 277 4211ft 111kts
13-Sep-20 14:35 34.194957 -118.860065 277 4211ft 111kts
13-Sep-20 14:36 34.198033 -118.897883 267 3842ft 114kts
13-Sep-20 14:37 34.198448 -118.935047 266 3710ft 108kts
13-Sep-20 14:38 34.198753 -118.972307 267 3536ft 114kts
13-Sep-20 14:39 34.199139 -119.010525 268 3081ft 111kts
13-Sep-20 14:40 34.199486 -119.048088 268 2522ft 111kts
13-Sep-20 14:41 34.199810 -119.084659 268 1936ft 107kts
13-Sep-20 14:42 34.200112 -119.120419 269 1356ft 105kts
13-Sep-20 14:43 34.200382 -119.153053 269 830ft 78kts
13-Sep-20 14:44 34.200541 -119.175469 270 468ft 58kts
13-Sep-20 14:45 34.200674 -119.194575 271 153ft 57kts
13-Sep-20 14:46 34.200711 -119.207427 218 37ft 11kts
13-Sep-20 14:47 34.199791 -119.205883 90 38ft 15kts
13-Sep-20 14:48 34.199372 -119.200181 185 43ft 10kts
13-Sep-20 14:49 34.198829 -119.199889 90 43ft 0kts

Navigation Log

Ident Type
Flight plan parsing failed, navigation log unavailable